sensor_id;sensor_type;location;lat;lon;timestamp;P1;durP1;ratioP1;P2;durP2;ratioP2
57341;SDS011;43175;51.002;18.316;2022-07-19T00:00:18;9.90;;;3.80;;
57341;SDS011;43175;51.002;18.316;2022-07-19T00:03:04;10.40;;;4.10;;
57341;SDS011;43175;51.002;18.316;2022-07-19T00:05:48;10.60;;;4.20;;
57341;SDS011;43175;51.002;18.316;2022-07-19T00:08:32;11.20;;;4.50;;
57341;SDS011;43175;51.002;18.316;2022-07-19T00:11:16;10.40;;;3.90;;
57341;SDS011;43175;51.002;18.316;2022-07-19T00:14:00;12.60;;;4.20;;
57341;SDS011;43175;51.002;18.316;2022-07-19T00:16:44;10.50;;;3.90;;
57341;SDS011;43175;51.002;18.316;2022-07-19T00:19:28;11.20;;;4.30;;
57341;SDS011;43175;51.002;18.316;2022-07-19T00:22:13;12.00;;;4.10;;
57341;SDS011;43175;51.002;18.316;2022-07-19T00:24:57;10.80;;;4.30;;
57341;SDS011;43175;51.002;18.316;2022-07-19T00:27:41;11.00;;;4.20;;
57341;SDS011;43175;51.002;18.316;2022-07-19T00:30:26;12.00;;;4.30;;
57341;SDS011;43175;51.002;18.316;2022-07-19T00:33:10;11.20;;;4.10;;
57341;SDS011;43175;51.002;18.316;2022-07-19T00:35:54;10.10;;;3.80;;
57341;SDS011;43175;51.002;18.316;2022-07-19T00:38:38;11.20;;;4.60;;
57341;SDS011;43175;51.002;18.316;2022-07-19T00:41:22;9.90;;;4.10;;
57341;SDS011;43175;51.002;18.316;2022-07-19T00:44:07;11.80;;;4.00;;
57341;SDS011;43175;51.002;18.316;2022-07-19T00:46:52;9.60;;;4.00;;
57341;SDS011;43175;51.002;18.316;2022-07-19T00:49:36;10.40;;;4.40;;
57341;SDS011;43175;51.002;18.316;2022-07-19T00:52:20;11.80;;;4.60;;
57341;SDS011;43175;51.002;18.316;2022-07-19T00:55:07;11.50;;;4.00;;
57341;SDS011;43175;51.002;18.316;2022-07-19T00:57:52;11.50;;;4.20;;
57341;SDS011;43175;51.002;18.316;2022-07-19T01:00:37;12.30;;;4.10;;
57341;SDS011;43175;51.002;18.316;2022-07-19T01:03:23;11.20;;;4.20;;
57341;SDS011;43175;51.002;18.316;2022-07-19T01:06:08;10.60;;;3.80;;
57341;SDS011;43175;51.002;18.316;2022-07-19T01:08:53;12.70;;;3.90;;
57341;SDS011;43175;51.002;18.316;2022-07-19T01:11:38;12.40;;;4.20;;
57341;SDS011;43175;51.002;18.316;2022-07-19T01:14:22;9.80;;;4.00;;
57341;SDS011;43175;51.002;18.316;2022-07-19T01:17:07;11.20;;;3.80;;
57341;SDS011;43175;51.002;18.316;2022-07-19T01:19:51;10.10;;;3.80;;
57341;SDS011;43175;51.002;18.316;2022-07-19T01:22:36;10.30;;;4.00;;
57341;SDS011;43175;51.002;18.316;2022-07-19T01:25:21;9.70;;;4.00;;
57341;SDS011;43175;51.002;18.316;2022-07-19T01:28:07;10.70;;;4.30;;
57341;SDS011;43175;51.002;18.316;2022-07-19T01:30:51;9.70;;;3.90;;
57341;SDS011;43175;51.002;18.316;2022-07-19T01:33:39;13.40;;;4.50;;
57341;SDS011;43175;51.002;18.316;2022-07-19T01:36:24;10.80;;;4.20;;
57341;SDS011;43175;51.002;18.316;2022-07-19T01:39:08;10.10;;;3.90;;
57341;SDS011;43175;51.002;18.316;2022-07-19T01:41:52;10.20;;;3.80;;
57341;SDS011;43175;51.002;18.316;2022-07-19T01:44:36;11.50;;;4.00;;
57341;SDS011;43175;51.002;18.316;2022-07-19T01:47:20;11.70;;;4.30;;
57341;SDS011;43175;51.002;18.316;2022-07-19T01:50:04;10.50;;;4.00;;
57341;SDS011;43175;51.002;18.316;2022-07-19T01:52:49;10.50;;;4.30;;
57341;SDS011;43175;51.002;18.316;2022-07-19T01:55:33;11.70;;;4.20;;
57341;SDS011;43175;51.002;18.316;2022-07-19T01:58:17;10.60;;;4.10;;
57341;SDS011;43175;51.002;18.316;2022-07-19T02:01:01;13.10;;;4.20;;
57341;SDS011;43175;51.002;18.316;2022-07-19T02:03:46;10.30;;;4.40;;
57341;SDS011;43175;51.002;18.316;2022-07-19T02:06:30;11.20;;;4.50;;
57341;SDS011;43175;51.002;18.316;2022-07-19T02:09:15;10.80;;;4.40;;
57341;SDS011;43175;51.002;18.316;2022-07-19T02:11:59;11.10;;;4.50;;
57341;SDS011;43175;51.002;18.316;2022-07-19T02:14:43;10.40;;;4.40;;
57341;SDS011;43175;51.002;18.316;2022-07-19T02:17:27;11.80;;;4.60;;
57341;SDS011;43175;51.002;18.316;2022-07-19T02:20:11;10.30;;;4.50;;
57341;SDS011;43175;51.002;18.316;2022-07-19T02:22:56;10.30;;;4.20;;
57341;SDS011;43175;51.002;18.316;2022-07-19T02:25:42;11.40;;;4.50;;
57341;SDS011;43175;51.002;18.316;2022-07-19T02:28:26;12.50;;;4.20;;
57341;SDS011;43175;51.002;18.316;2022-07-19T02:31:10;10.70;;;4.20;;
57341;SDS011;43175;51.002;18.316;2022-07-19T02:33:54;10.90;;;4.30;;
57341;SDS011;43175;51.002;18.316;2022-07-19T02:36:38;10.00;;;4.10;;
57341;SDS011;43175;51.002;18.316;2022-07-19T02:39:22;11.10;;;4.50;;
57341;SDS011;43175;51.002;18.316;2022-07-19T02:42:06;12.70;;;4.60;;
57341;SDS011;43175;51.002;18.316;2022-07-19T02:44:51;11.60;;;4.60;;
57341;SDS011;43175;51.002;18.316;2022-07-19T02:47:35;10.30;;;4.40;;
57341;SDS011;43175;51.002;18.316;2022-07-19T02:50:19;10.80;;;4.10;;
57341;SDS011;43175;51.002;18.316;2022-07-19T02:53:03;11.50;;;4.70;;
57341;SDS011;43175;51.002;18.316;2022-07-19T02:55:47;10.30;;;4.60;;
57341;SDS011;43175;51.002;18.316;2022-07-19T02:58:31;10.50;;;4.50;;
57341;SDS011;43175;51.002;18.316;2022-07-19T03:01:16;11.70;;;4.70;;
57341;SDS011;43175;51.002;18.316;2022-07-19T03:04:00;10.30;;;4.20;;
57341;SDS011;43175;51.002;18.316;2022-07-19T03:06:44;10.70;;;4.40;;
57341;SDS011;43175;51.002;18.316;2022-07-19T03:09:28;10.40;;;4.30;;
57341;SDS011;43175;51.002;18.316;2022-07-19T03:12:12;11.00;;;4.60;;
57341;SDS011;43175;51.002;18.316;2022-07-19T03:14:56;12.10;;;5.00;;
57341;SDS011;43175;51.002;18.316;2022-07-19T03:17:41;9.90;;;4.20;;
57341;SDS011;43175;51.002;18.316;2022-07-19T03:20:25;11.40;;;4.60;;
57341;SDS011;43175;51.002;18.316;2022-07-19T03:23:09;10.80;;;4.50;;
57341;SDS011;43175;51.002;18.316;2022-07-19T03:25:53;12.40;;;4.30;;
57341;SDS011;43175;51.002;18.316;2022-07-19T03:28:37;11.50;;;4.60;;
57341;SDS011;43175;51.002;18.316;2022-07-19T03:31:21;10.80;;;4.40;;
57341;SDS011;43175;51.002;18.316;2022-07-19T03:34:06;9.70;;;4.20;;
57341;SDS011;43175;51.002;18.316;2022-07-19T03:36:50;12.60;;;4.70;;
57341;SDS011;43175;51.002;18.316;2022-07-19T03:39:34;12.80;;;5.10;;
57341;SDS011;43175;51.002;18.316;2022-07-19T03:42:18;11.50;;;4.70;;
57341;SDS011;43175;51.002;18.316;2022-07-19T03:45:03;11.50;;;4.90;;
57341;SDS011;43175;51.002;18.316;2022-07-19T03:47:47;10.60;;;4.80;;
57341;SDS011;43175;51.002;18.316;2022-07-19T03:50:31;11.20;;;4.90;;
57341;SDS011;43175;51.002;18.316;2022-07-19T03:53:15;11.00;;;4.50;;
57341;SDS011;43175;51.002;18.316;2022-07-19T03:55:59;11.20;;;5.00;;
57341;SDS011;43175;51.002;18.316;2022-07-19T03:58:44;12.30;;;4.60;;
57341;SDS011;43175;51.002;18.316;2022-07-19T04:01:28;12.50;;;4.70;;
57341;SDS011;43175;51.002;18.316;2022-07-19T04:04:12;11.60;;;4.90;;
57341;SDS011;43175;51.002;18.316;2022-07-19T04:06:56;12.20;;;4.80;;
57341;SDS011;43175;51.002;18.316;2022-07-19T04:09:40;11.30;;;4.60;;
57341;SDS011;43175;51.002;18.316;2022-07-19T04:12:25;13.70;;;5.10;;
57341;SDS011;43175;51.002;18.316;2022-07-19T04:15:09;11.40;;;5.40;;
57341;SDS011;43175;51.002;18.316;2022-07-19T04:17:53;11.80;;;5.00;;
57341;SDS011;43175;51.002;18.316;2022-07-19T04:20:37;12.20;;;5.40;;
57341;SDS011;43175;51.002;18.316;2022-07-19T04:23:22;13.10;;;5.80;;
57341;SDS011;43175;51.002;18.316;2022-07-19T04:26:06;13.30;;;5.80;;
57341;SDS011;43175;51.002;18.316;2022-07-19T04:28:50;14.20;;;5.70;;
57341;SDS011;43175;51.002;18.316;2022-07-19T04:31:34;11.70;;;5.30;;
57341;SDS011;43175;51.002;18.316;2022-07-19T04:34:18;13.20;;;5.40;;
57341;SDS011;43175;51.002;18.316;2022-07-19T04:37:03;12.90;;;5.50;;
57341;SDS011;43175;51.002;18.316;2022-07-19T04:39:47;18.20;;;5.80;;
57341;SDS011;43175;51.002;18.316;2022-07-19T04:42:31;13.90;;;5.70;;
57341;SDS011;43175;51.002;18.316;2022-07-19T04:45:16;12.40;;;5.20;;
57341;SDS011;43175;51.002;18.316;2022-07-19T04:48:00;11.30;;;5.10;;
57341;SDS011;43175;51.002;18.316;2022-07-19T04:50:44;13.70;;;5.50;;
57341;SDS011;43175;51.002;18.316;2022-07-19T04:53:28;13.50;;;5.90;;
57341;SDS011;43175;51.002;18.316;2022-07-19T04:56:12;14.70;;;5.70;;
57341;SDS011;43175;51.002;18.316;2022-07-19T04:58:56;15.20;;;5.50;;
57341;SDS011;43175;51.002;18.316;2022-07-19T05:01:40;13.30;;;5.30;;
57341;SDS011;43175;51.002;18.316;2022-07-19T05:04:24;13.70;;;5.00;;
57341;SDS011;43175;51.002;18.316;2022-07-19T05:07:08;15.60;;;5.10;;
57341;SDS011;43175;51.002;18.316;2022-07-19T05:09:53;16.00;;;5.40;;
57341;SDS011;43175;51.002;18.316;2022-07-19T05:12:37;16.50;;;5.30;;
57341;SDS011;43175;51.002;18.316;2022-07-19T05:15:22;16.10;;;5.10;;
57341;SDS011;43175;51.002;18.316;2022-07-19T05:18:06;13.90;;;5.20;;
57341;SDS011;43175;51.002;18.316;2022-07-19T05:20:50;13.60;;;4.90;;
57341;SDS011;43175;51.002;18.316;2022-07-19T05:23:34;14.20;;;4.80;;
57341;SDS011;43175;51.002;18.316;2022-07-19T05:26:18;10.90;;;4.50;;
57341;SDS011;43175;51.002;18.316;2022-07-19T05:29:02;11.90;;;4.70;;
57341;SDS011;43175;51.002;18.316;2022-07-19T05:31:47;14.70;;;5.00;;
57341;SDS011;43175;51.002;18.316;2022-07-19T05:34:31;11.70;;;5.20;;
57341;SDS011;43175;51.002;18.316;2022-07-19T05:37:15;11.50;;;5.00;;
57341;SDS011;43175;51.002;18.316;2022-07-19T05:39:59;14.30;;;4.90;;
57341;SDS011;43175;51.002;18.316;2022-07-19T05:42:43;12.30;;;4.40;;
57341;SDS011;43175;51.002;18.316;2022-07-19T05:45:27;10.70;;;3.80;;
57341;SDS011;43175;51.002;18.316;2022-07-19T05:48:11;12.70;;;4.50;;
57341;SDS011;43175;51.002;18.316;2022-07-19T05:50:56;12.60;;;4.30;;
57341;SDS011;43175;51.002;18.316;2022-07-19T05:53:41;12.90;;;4.50;;
57341;SDS011;43175;51.002;18.316;2022-07-19T05:56:25;11.30;;;4.40;;
57341;SDS011;43175;51.002;18.316;2022-07-19T05:59:09;14.10;;;4.10;;
57341;SDS011;43175;51.002;18.316;2022-07-19T06:01:54;12.60;;;4.20;;
57341;SDS011;43175;51.002;18.316;2022-07-19T06:04:38;10.90;;;4.30;;
57341;SDS011;43175;51.002;18.316;2022-07-19T06:07:22;12.70;;;4.50;;
57341;SDS011;43175;51.002;18.316;2022-07-19T06:10:06;14.50;;;4.10;;
57341;SDS011;43175;51.002;18.316;2022-07-19T06:12:51;11.60;;;3.90;;
57341;SDS011;43175;51.002;18.316;2022-07-19T06:15:34;11.80;;;4.20;;
57341;SDS011;43175;51.002;18.316;2022-07-19T06:18:19;10.10;;;3.90;;
57341;SDS011;43175;51.002;18.316;2022-07-19T06:21:04;10.80;;;4.70;;
57341;SDS011;43175;51.002;18.316;2022-07-19T06:23:50;12.70;;;4.40;;
57341;SDS011;43175;51.002;18.316;2022-07-19T06:26:34;11.30;;;4.00;;
57341;SDS011;43175;51.002;18.316;2022-07-19T06:29:18;11.20;;;4.20;;
57341;SDS011;43175;51.002;18.316;2022-07-19T06:32:02;10.60;;;3.90;;
57341;SDS011;43175;51.002;18.316;2022-07-19T06:34:47;13.00;;;4.10;;
57341;SDS011;43175;51.002;18.316;2022-07-19T06:37:30;11.10;;;4.00;;
57341;SDS011;43175;51.002;18.316;2022-07-19T06:40:15;10.20;;;3.40;;
57341;SDS011;43175;51.002;18.316;2022-07-19T06:42:59;10.20;;;3.50;;
57341;SDS011;43175;51.002;18.316;2022-07-19T06:45:43;13.10;;;3.60;;
57341;SDS011;43175;51.002;18.316;2022-07-19T06:48:27;9.80;;;3.70;;
57341;SDS011;43175;51.002;18.316;2022-07-19T06:51:11;10.40;;;3.80;;
57341;SDS011;43175;51.002;18.316;2022-07-19T06:53:55;12.50;;;3.70;;
57341;SDS011;43175;51.002;18.316;2022-07-19T06:56:39;11.40;;;3.80;;
57341;SDS011;43175;51.002;18.316;2022-07-19T06:59:23;11.70;;;3.90;;
57341;SDS011;43175;51.002;18.316;2022-07-19T07:02:07;9.90;;;3.60;;
57341;SDS011;43175;51.002;18.316;2022-07-19T07:04:51;9.90;;;3.70;;
57341;SDS011;43175;51.002;18.316;2022-07-19T07:07:35;12.90;;;3.90;;
57341;SDS011;43175;51.002;18.316;2022-07-19T07:10:20;10.60;;;3.70;;
57341;SDS011;43175;51.002;18.316;2022-07-19T07:13:05;10.70;;;3.30;;
57341;SDS011;43175;51.002;18.316;2022-07-19T07:15:49;10.40;;;3.40;;
57341;SDS011;43175;51.002;18.316;2022-07-19T07:18:33;8.90;;;3.00;;
57341;SDS011;43175;51.002;18.316;2022-07-19T07:21:17;10.20;;;3.20;;
57341;SDS011;43175;51.002;18.316;2022-07-19T07:24:02;12.80;;;3.20;;
57341;SDS011;43175;51.002;18.316;2022-07-19T07:26:47;11.80;;;3.40;;
57341;SDS011;43175;51.002;18.316;2022-07-19T07:29:31;10.70;;;3.10;;
57341;SDS011;43175;51.002;18.316;2022-07-19T07:32:15;9.20;;;3.20;;
57341;SDS011;43175;51.002;18.316;2022-07-19T07:34:59;10.40;;;3.30;;
57341;SDS011;43175;51.002;18.316;2022-07-19T07:37:44;10.40;;;3.10;;
57341;SDS011;43175;51.002;18.316;2022-07-19T07:40:28;10.20;;;3.00;;
57341;SDS011;43175;51.002;18.316;2022-07-19T07:43:12;9.80;;;3.00;;
57341;SDS011;43175;51.002;18.316;2022-07-19T07:45:56;9.40;;;3.10;;
57341;SDS011;43175;51.002;18.316;2022-07-19T07:48:40;8.60;;;2.80;;
57341;SDS011;43175;51.002;18.316;2022-07-19T07:51:24;11.00;;;3.10;;
57341;SDS011;43175;51.002;18.316;2022-07-19T07:54:09;10.10;;;3.00;;
57341;SDS011;43175;51.002;18.316;2022-07-19T07:56:53;10.20;;;3.10;;
57341;SDS011;43175;51.002;18.316;2022-07-19T07:59:37;11.70;;;2.80;;
57341;SDS011;43175;51.002;18.316;2022-07-19T08:02:21;8.10;;;3.00;;
57341;SDS011;43175;51.002;18.316;2022-07-19T08:05:06;10.40;;;3.20;;
57341;SDS011;43175;51.002;18.316;2022-07-19T08:07:50;9.20;;;3.20;;
57341;SDS011;43175;51.002;18.316;2022-07-19T08:10:34;8.80;;;2.70;;
57341;SDS011;43175;51.002;18.316;2022-07-19T08:13:20;9.50;;;2.80;;
57341;SDS011;43175;51.002;18.316;2022-07-19T08:16:05;9.10;;;2.80;;
57341;SDS011;43175;51.002;18.316;2022-07-19T08:18:50;9.10;;;2.70;;
57341;SDS011;43175;51.002;18.316;2022-07-19T08:21:34;8.40;;;2.60;;
57341;SDS011;43175;51.002;18.316;2022-07-19T08:24:18;9.10;;;2.60;;
57341;SDS011;43175;51.002;18.316;2022-07-19T08:27:02;10.10;;;2.80;;
57341;SDS011;43175;51.002;18.316;2022-07-19T08:29:46;9.30;;;2.80;;
57341;SDS011;43175;51.002;18.316;2022-07-19T08:32:30;8.50;;;2.90;;
57341;SDS011;43175;51.002;18.316;2022-07-19T08:35:14;9.00;;;2.90;;
57341;SDS011;43175;51.002;18.316;2022-07-19T08:37:58;10.30;;;2.90;;
57341;SDS011;43175;51.002;18.316;2022-07-19T08:40:42;8.80;;;2.90;;
57341;SDS011;43175;51.002;18.316;2022-07-19T08:43:26;8.90;;;3.10;;
57341;SDS011;43175;51.002;18.316;2022-07-19T08:46:11;10.50;;;2.90;;
57341;SDS011;43175;51.002;18.316;2022-07-19T08:48:55;9.50;;;2.70;;
57341;SDS011;43175;51.002;18.316;2022-07-19T08:51:40;10.30;;;3.00;;
57341;SDS011;43175;51.002;18.316;2022-07-19T08:54:25;8.50;;;2.90;;
57341;SDS011;43175;51.002;18.316;2022-07-19T08:57:09;9.00;;;2.90;;
57341;SDS011;43175;51.002;18.316;2022-07-19T09:00:13;9.30;;;2.80;;
57341;SDS011;43175;51.002;18.316;2022-07-19T09:05:44;9.60;;;2.90;;
57341;SDS011;43175;51.002;18.316;2022-07-19T09:08:28;9.50;;;2.70;;
57341;SDS011;43175;51.002;18.316;2022-07-19T09:11:12;8.80;;;2.70;;
57341;SDS011;43175;51.002;18.316;2022-07-19T09:14:35;9.20;;;2.80;;
57341;SDS011;43175;51.002;18.316;2022-07-19T09:17:20;8.20;;;2.90;;
57341;SDS011;43175;51.002;18.316;2022-07-19T09:20:04;8.80;;;2.80;;
57341;SDS011;43175;51.002;18.316;2022-07-19T09:22:55;8.00;;;2.80;;
57341;SDS011;43175;51.002;18.316;2022-07-19T09:25:41;10.40;;;2.90;;
57341;SDS011;43175;51.002;18.316;2022-07-19T09:28:27;12.50;;;3.10;;
57341;SDS011;43175;51.002;18.316;2022-07-19T09:31:15;7.70;;;2.60;;
57341;SDS011;43175;51.002;18.316;2022-07-19T09:33:59;10.90;;;2.90;;
57341;SDS011;43175;51.002;18.316;2022-07-19T09:36:44;9.40;;;2.90;;
57341;SDS011;43175;51.002;18.316;2022-07-19T09:39:29;10.20;;;3.00;;
57341;SDS011;43175;51.002;18.316;2022-07-19T09:42:14;9.40;;;3.00;;
57341;SDS011;43175;51.002;18.316;2022-07-19T09:45:02;8.90;;;2.80;;
57341;SDS011;43175;51.002;18.316;2022-07-19T09:47:47;9.70;;;3.00;;
57341;SDS011;43175;51.002;18.316;2022-07-19T09:50:32;10.30;;;3.00;;
57341;SDS011;43175;51.002;18.316;2022-07-19T09:53:16;9.20;;;2.80;;
57341;SDS011;43175;51.002;18.316;2022-07-19T09:56:01;9.40;;;2.80;;
57341;SDS011;43175;51.002;18.316;2022-07-19T09:58:45;8.40;;;2.70;;
57341;SDS011;43175;51.002;18.316;2022-07-19T10:01:30;8.80;;;2.70;;
57341;SDS011;43175;51.002;18.316;2022-07-19T10:04:15;10.00;;;3.30;;
57341;SDS011;43175;51.002;18.316;2022-07-19T10:07:02;9.60;;;2.80;;
57341;SDS011;43175;51.002;18.316;2022-07-19T10:09:46;9.50;;;2.80;;
57341;SDS011;43175;51.002;18.316;2022-07-19T10:12:32;7.40;;;2.50;;
57341;SDS011;43175;51.002;18.316;2022-07-19T10:15:17;9.50;;;2.80;;
57341;SDS011;43175;51.002;18.316;2022-07-19T10:20:53;8.80;;;2.50;;
57341;SDS011;43175;51.002;18.316;2022-07-19T10:23:37;7.30;;;2.40;;
57341;SDS011;43175;51.002;18.316;2022-07-19T10:26:34;8.00;;;2.40;;
57341;SDS011;43175;51.002;18.316;2022-07-19T10:29:22;8.30;;;2.60;;
57341;SDS011;43175;51.002;18.316;2022-07-19T10:32:07;8.60;;;2.50;;
57341;SDS011;43175;51.002;18.316;2022-07-19T10:34:57;8.80;;;2.70;;
57341;SDS011;43175;51.002;18.316;2022-07-19T10:38:10;6.60;;;2.30;;
57341;SDS011;43175;51.002;18.316;2022-07-19T10:40:54;9.60;;;2.60;;
57341;SDS011;43175;51.002;18.316;2022-07-19T10:43:42;9.40;;;2.50;;
57341;SDS011;43175;51.002;18.316;2022-07-19T10:46:51;8.30;;;2.60;;
57341;SDS011;43175;51.002;18.316;2022-07-19T10:49:45;8.50;;;2.60;;
57341;SDS011;43175;51.002;18.316;2022-07-19T11:00:50;10.10;;;2.70;;
57341;SDS011;43175;51.002;18.316;2022-07-19T11:03:34;8.70;;;2.50;;
57341;SDS011;43175;51.002;18.316;2022-07-19T11:06:23;10.20;;;2.50;;
57341;SDS011;43175;51.002;18.316;2022-07-19T11:09:08;9.20;;;2.60;;
57341;SDS011;43175;51.002;18.316;2022-07-19T11:11:52;10.60;;;2.70;;
57341;SDS011;43175;51.002;18.316;2022-07-19T11:14:42;8.70;;;2.80;;
57341;SDS011;43175;51.002;18.316;2022-07-19T11:17:27;7.40;;;2.60;;
57341;SDS011;43175;51.002;18.316;2022-07-19T11:20:12;8.30;;;2.50;;
57341;SDS011;43175;51.002;18.316;2022-07-19T11:23:00;9.30;;;2.50;;
57341;SDS011;43175;51.002;18.316;2022-07-19T11:25:44;8.70;;;2.60;;
57341;SDS011;43175;51.002;18.316;2022-07-19T11:28:30;8.50;;;2.60;;
57341;SDS011;43175;51.002;18.316;2022-07-19T11:31:19;11.40;;;2.60;;
57341;SDS011;43175;51.002;18.316;2022-07-19T11:34:10;9.40;;;2.50;;
57341;SDS011;43175;51.002;18.316;2022-07-19T11:36:58;9.50;;;2.60;;
57341;SDS011;43175;51.002;18.316;2022-07-19T11:39:46;9.90;;;2.50;;
57341;SDS011;43175;51.002;18.316;2022-07-19T11:42:32;8.20;;;2.60;;
57341;SDS011;43175;51.002;18.316;2022-07-19T11:45:22;8.90;;;2.50;;
57341;SDS011;43175;51.002;18.316;2022-07-19T11:48:08;10.00;;;2.70;;
57341;SDS011;43175;51.002;18.316;2022-07-19T11:51:02;8.00;;;2.40;;
57341;SDS011;43175;51.002;18.316;2022-07-19T11:53:49;8.70;;;2.60;;
57341;SDS011;43175;51.002;18.316;2022-07-19T11:56:36;10.60;;;2.50;;
57341;SDS011;43175;51.002;18.316;2022-07-19T11:59:20;9.40;;;2.50;;
57341;SDS011;43175;51.002;18.316;2022-07-19T12:02:04;6.80;;;2.50;;
57341;SDS011;43175;51.002;18.316;2022-07-19T12:04:48;10.20;;;2.50;;
57341;SDS011;43175;51.002;18.316;2022-07-19T12:07:32;9.50;;;2.90;;
57341;SDS011;43175;51.002;18.316;2022-07-19T12:13:35;9.70;;;2.50;;
57341;SDS011;43175;51.002;18.316;2022-07-19T12:16:20;7.90;;;2.40;;
57341;SDS011;43175;51.002;18.316;2022-07-19T12:19:09;8.70;;;2.70;;
57341;SDS011;43175;51.002;18.316;2022-07-19T12:21:54;8.40;;;2.70;;
57341;SDS011;43175;51.002;18.316;2022-07-19T12:24:44;8.80;;;2.60;;
57341;SDS011;43175;51.002;18.316;2022-07-19T12:27:29;9.60;;;2.60;;
57341;SDS011;43175;51.002;18.316;2022-07-19T12:30:18;8.20;;;2.20;;
57341;SDS011;43175;51.002;18.316;2022-07-19T12:33:07;9.10;;;2.20;;
57341;SDS011;43175;51.002;18.316;2022-07-19T12:35:55;7.50;;;2.60;;
57341;SDS011;43175;51.002;18.316;2022-07-19T12:38:39;9.20;;;2.50;;
57341;SDS011;43175;51.002;18.316;2022-07-19T12:41:23;8.60;;;2.50;;
57341;SDS011;43175;51.002;18.316;2022-07-19T12:44:07;7.20;;;2.40;;
57341;SDS011;43175;51.002;18.316;2022-07-19T12:46:52;9.00;;;2.40;;
57341;SDS011;43175;51.002;18.316;2022-07-19T12:49:43;8.30;;;2.40;;
57341;SDS011;43175;51.002;18.316;2022-07-19T12:52:29;7.80;;;2.30;;
57341;SDS011;43175;51.002;18.316;2022-07-19T12:55:13;7.20;;;2.30;;
57341;SDS011;43175;51.002;18.316;2022-07-19T12:57:58;6.60;;;2.10;;
57341;SDS011;43175;51.002;18.316;2022-07-19T13:00:42;9.10;;;2.70;;
57341;SDS011;43175;51.002;18.316;2022-07-19T13:03:27;8.40;;;2.50;;
57341;SDS011;43175;51.002;18.316;2022-07-19T13:06:11;7.80;;;2.30;;
57341;SDS011;43175;51.002;18.316;2022-07-19T13:08:55;9.80;;;2.60;;
57341;SDS011;43175;51.002;18.316;2022-07-19T13:11:39;8.10;;;2.30;;
57341;SDS011;43175;51.002;18.316;2022-07-19T13:14:24;8.20;;;2.30;;
57341;SDS011;43175;51.002;18.316;2022-07-19T13:17:08;8.80;;;2.50;;
57341;SDS011;43175;51.002;18.316;2022-07-19T13:19:54;7.60;;;2.50;;
57341;SDS011;43175;51.002;18.316;2022-07-19T13:22:39;8.20;;;2.50;;
57341;SDS011;43175;51.002;18.316;2022-07-19T13:25:23;9.30;;;2.50;;
57341;SDS011;43175;51.002;18.316;2022-07-19T13:28:07;7.90;;;2.50;;
57341;SDS011;43175;51.002;18.316;2022-07-19T13:30:51;7.70;;;2.80;;
57341;SDS011;43175;51.002;18.316;2022-07-19T13:33:35;7.70;;;2.70;;
57341;SDS011;43175;51.002;18.316;2022-07-19T13:36:19;7.20;;;2.40;;
57341;SDS011;43175;51.002;18.316;2022-07-19T13:39:03;7.80;;;2.50;;
57341;SDS011;43175;51.002;18.316;2022-07-19T13:41:48;9.50;;;2.40;;
57341;SDS011;43175;51.002;18.316;2022-07-19T13:44:33;7.30;;;2.30;;
57341;SDS011;43175;51.002;18.316;2022-07-19T13:47:17;9.70;;;2.10;;
57341;SDS011;43175;51.002;18.316;2022-07-19T13:50:01;7.80;;;2.30;;
57341;SDS011;43175;51.002;18.316;2022-07-19T13:52:46;8.30;;;2.60;;
57341;SDS011;43175;51.002;18.316;2022-07-19T13:55:30;8.90;;;2.40;;
57341;SDS011;43175;51.002;18.316;2022-07-19T13:58:15;7.80;;;2.50;;
57341;SDS011;43175;51.002;18.316;2022-07-19T14:00:59;8.80;;;2.80;;
57341;SDS011;43175;51.002;18.316;2022-07-19T14:03:44;7.10;;;2.40;;
57341;SDS011;43175;51.002;18.316;2022-07-19T14:06:31;9.00;;;2.40;;
57341;SDS011;43175;51.002;18.316;2022-07-19T14:09:16;8.80;;;2.40;;
57341;SDS011;43175;51.002;18.316;2022-07-19T14:12:01;9.00;;;2.80;;
57341;SDS011;43175;51.002;18.316;2022-07-19T14:14:45;8.20;;;2.70;;
57341;SDS011;43175;51.002;18.316;2022-07-19T14:17:29;8.40;;;2.90;;
57341;SDS011;43175;51.002;18.316;2022-07-19T14:20:13;9.10;;;2.80;;
57341;SDS011;43175;51.002;18.316;2022-07-19T14:22:57;8.10;;;2.90;;
57341;SDS011;43175;51.002;18.316;2022-07-19T14:25:41;9.10;;;2.90;;
57341;SDS011;43175;51.002;18.316;2022-07-19T14:28:26;10.10;;;2.90;;
57341;SDS011;43175;51.002;18.316;2022-07-19T14:31:10;8.10;;;2.70;;
57341;SDS011;43175;51.002;18.316;2022-07-19T14:33:59;9.50;;;3.10;;
57341;SDS011;43175;51.002;18.316;2022-07-19T14:36:43;10.00;;;2.90;;
57341;SDS011;43175;51.002;18.316;2022-07-19T14:39:28;9.30;;;3.00;;
57341;SDS011;43175;51.002;18.316;2022-07-19T14:42:12;8.70;;;3.00;;
57341;SDS011;43175;51.002;18.316;2022-07-19T14:44:56;9.00;;;2.80;;
57341;SDS011;43175;51.002;18.316;2022-07-19T14:47:41;10.10;;;3.00;;
57341;SDS011;43175;51.002;18.316;2022-07-19T14:50:25;9.90;;;2.90;;
57341;SDS011;43175;51.002;18.316;2022-07-19T14:53:10;10.20;;;2.90;;
57341;SDS011;43175;51.002;18.316;2022-07-19T14:55:55;9.60;;;2.70;;
57341;SDS011;43175;51.002;18.316;2022-07-19T14:58:39;8.90;;;3.20;;
57341;SDS011;43175;51.002;18.316;2022-07-19T15:01:25;9.80;;;3.10;;
57341;SDS011;43175;51.002;18.316;2022-07-19T15:04:10;9.70;;;2.90;;
57341;SDS011;43175;51.002;18.316;2022-07-19T15:06:54;8.50;;;2.90;;
57341;SDS011;43175;51.002;18.316;2022-07-19T15:09:38;9.50;;;3.10;;
57341;SDS011;43175;51.002;18.316;2022-07-19T15:12:22;7.90;;;2.80;;
57341;SDS011;43175;51.002;18.316;2022-07-19T15:15:06;10.00;;;3.10;;
57341;SDS011;43175;51.002;18.316;2022-07-19T15:17:52;11.30;;;3.20;;
57341;SDS011;43175;51.002;18.316;2022-07-19T15:20:37;8.40;;;2.90;;
57341;SDS011;43175;51.002;18.316;2022-07-19T15:23:22;10.60;;;2.90;;
57341;SDS011;43175;51.002;18.316;2022-07-19T15:26:06;9.50;;;2.80;;
57341;SDS011;43175;51.002;18.316;2022-07-19T15:28:51;10.30;;;3.10;;
57341;SDS011;43175;51.002;18.316;2022-07-19T15:31:36;9.40;;;2.90;;
57341;SDS011;43175;51.002;18.316;2022-07-19T15:34:20;10.20;;;2.90;;
57341;SDS011;43175;51.002;18.316;2022-07-19T15:37:04;8.30;;;2.70;;
57341;SDS011;43175;51.002;18.316;2022-07-19T15:39:49;8.90;;;3.10;;
57341;SDS011;43175;51.002;18.316;2022-07-19T15:42:41;11.50;;;3.50;;
57341;SDS011;43175;51.002;18.316;2022-07-19T15:45:26;9.20;;;3.00;;
57341;SDS011;43175;51.002;18.316;2022-07-19T15:48:10;8.60;;;3.30;;
57341;SDS011;43175;51.002;18.316;2022-07-19T15:50:54;9.10;;;3.40;;
57341;SDS011;43175;51.002;18.316;2022-07-19T15:53:39;9.60;;;3.70;;
57341;SDS011;43175;51.002;18.316;2022-07-19T15:56:23;10.50;;;3.60;;
57341;SDS011;43175;51.002;18.316;2022-07-19T15:59:08;9.70;;;3.80;;
57341;SDS011;43175;51.002;18.316;2022-07-19T16:01:52;10.30;;;3.90;;
57341;SDS011;43175;51.002;18.316;2022-07-19T16:04:36;11.30;;;3.70;;
57341;SDS011;43175;51.002;18.316;2022-07-19T16:07:20;9.90;;;3.60;;
57341;SDS011;43175;51.002;18.316;2022-07-19T16:10:05;9.10;;;3.00;;
57341;SDS011;43175;51.002;18.316;2022-07-19T16:12:50;10.10;;;3.50;;
57341;SDS011;43175;51.002;18.316;2022-07-19T16:15:34;11.10;;;4.00;;
57341;SDS011;43175;51.002;18.316;2022-07-19T16:18:18;10.00;;;3.50;;
57341;SDS011;43175;51.002;18.316;2022-07-19T16:21:02;11.20;;;3.60;;
57341;SDS011;43175;51.002;18.316;2022-07-19T16:23:46;10.10;;;3.50;;
57341;SDS011;43175;51.002;18.316;2022-07-19T16:26:30;11.30;;;3.90;;
57341;SDS011;43175;51.002;18.316;2022-07-19T16:29:15;9.80;;;3.30;;